TimeCDT,TemperatureF,Dew PointF,Humidity,Sea Level PressureIn,VisibilityMPH,Wind Direction,Wind SpeedMPH,Gust SpeedMPH,PrecipitationIn,Events,Conditions,WindDirDegrees,DateUTC
12:14 AM,5.0,-0.4,78,30.11,10.0,Calm,Calm,-,N/A,,Clear,0,2013-03-16 05:14:00
12:34 AM,3.2,-0.4,85,30.11,10.0,NNW,3.5,-,N/A,,Clear,340,2013-03-16 05:34:00
12:54 AM,3.2,-0.4,85,30.11,10.0,North,4.6,-,N/A,,Clear,350,2013-03-16 05:54:00
1:13 AM,3.2,-0.4,85,30.12,10.0,NNW,4.6,-,N/A,,Clear,330,2013-03-16 06:13:00
1:34 AM,3.2,-0.4,85,30.12,10.0,NNW,3.5,-,N/A,,Clear,330,2013-03-16 06:34:00
1:54 AM,1.4,-2.2,85,30.11,10.0,NW,3.5,-,N/A,,Clear,320,2013-03-16 06:54:00
2:14 AM,1.4,-2.2,85,30.12,10.0,NW,4.6,-,N/A,,Scattered Clouds,320,2013-03-16 07:14:00
2:34 AM,1.4,-4.0,78,30.11,4.0,WNW,3.5,-,N/A,,Mostly Cloudy,300,2013-03-16 07:34:00
2:54 AM,1.4,-2.2,85,30.12,10.0,WNW,8.1,-,N/A,,Scattered Clouds,300,2013-03-16 07:54:00
3:14 AM,1.4,-4.0,78,30.12,10.0,NW,8.1,-,N/A,,Mostly Cloudy,310,2013-03-16 08:14:00
3:34 AM,1.4,-4.0,78,30.12,10.0,NW,4.6,-,N/A,,Overcast,310,2013-03-16 08:34:00
3:54 AM,1.4,-2.2,85,30.12,10.0,WNW,5.8,-,N/A,,Overcast,300,2013-03-16 08:54:00
4:13 AM,1.4,-2.2,85,30.12,7.0,WNW,5.8,-,N/A,,Overcast,290,2013-03-16 09:13:00
4:34 AM,1.4,-2.2,85,30.12,7.0,WNW,5.8,-,N/A,,Overcast,290,2013-03-16 09:34:00
4:54 AM,1.4,-2.2,85,30.13,7.0,WNW,6.9,-,N/A,,Overcast,290,2013-03-16 09:54:00
5:13 AM,1.4,-4.0,78,30.14,7.0,WNW,5.8,-,N/A,,Overcast,290,2013-03-16 10:13:00
5:34 AM,1.4,-4.0,78,30.13,7.0,WNW,5.8,-,N/A,,Overcast,300,2013-03-16 10:34:00
5:54 AM,1.4,-4.0,78,30.13,7.0,WNW,5.8,-,N/A,,Overcast,290,2013-03-16 10:54:00
6:13 AM,1.4,-4.0,78,30.13,7.0,West,5.8,-,N/A,,Overcast,280,2013-03-16 11:13:00
6:34 AM,1.4,-4.0,78,30.13,7.0,West,5.8,-,N/A,,Overcast,280,2013-03-16 11:34:00
6:54 AM,1.4,-4.0,78,30.13,7.0,West,5.8,-,N/A,,Overcast,280,2013-03-16 11:54:00
7:13 AM,-0.4,-5.8,78,30.14,7.0,WNW,6.9,-,N/A,,Overcast,290,2013-03-16 12:13:00
7:34 AM,-0.4,-5.8,78,30.14,7.0,West,4.6,-,N/A,,Scattered Clouds,280,2013-03-16 12:34:00
7:54 AM,-0.4,-5.8,78,30.13,10.0,WNW,3.5,-,N/A,,Clear,290,2013-03-16 12:54:00
8:14 AM,-0.4,-5.8,78,30.14,10.0,West,3.5,-,N/A,,Clear,270,2013-03-16 13:14:00
8:34 AM,-0.4,-5.8,78,30.13,10.0,West,6.9,-,N/A,,Clear,280,2013-03-16 13:34:00
8:53 AM,-0.4,-5.8,78,30.13,10.0,West,6.9,-,N/A,,Clear,280,2013-03-16 13:53:00
9:14 AM,-0.4,-5.8,78,30.13,10.0,West,8.1,-,N/A,,Clear,280,2013-03-16 14:14:00
9:34 AM,1.4,-5.8,72,30.13,10.0,NW,8.1,-,N/A,,Clear,310,2013-03-16 14:34:00
9:54 AM,1.4,-5.8,72,30.14,10.0,West,9.2,-,N/A,,Clear,280,2013-03-16 14:54:00
10:14 AM,3.2,-5.8,66,30.13,10.0,WNW,6.9,-,N/A,,Clear,290,2013-03-16 15:14:00
10:34 AM,3.2,-5.8,66,30.13,10.0,West,6.9,-,N/A,,Scattered Clouds,280,2013-03-16 15:34:00
10:54 AM,3.2,-5.8,66,30.13,5.0,WSW,5.8,-,N/A,,Scattered Clouds,240,2013-03-16 15:54:00
11:14 AM,3.2,-5.8,66,30.13,7.0,SW,6.9,-,N/A,,Scattered Clouds,230,2013-03-16 16:14:00
11:34 AM,5.0,-4.0,66,30.13,7.0,WSW,9.2,-,N/A,,Clear,250,2013-03-16 16:34:00
11:54 AM,5.0,-2.2,72,30.13,7.0,SW,8.1,-,N/A,,Clear,220,2013-03-16 16:54:00
12:14 PM,5.0,-2.2,72,30.14,7.0,SW,10.4,-,N/A,,Scattered Clouds,220,2013-03-16 17:14:00
12:34 PM,6.8,-2.2,67,30.14,5.0,WSW,10.4,-,N/A,,Haze,240,2013-03-16 17:34:00
12:54 PM,6.8,-2.2,67,30.14,3.0,WSW,10.4,17.3,N/A,,Haze,240,2013-03-16 17:54:00
1:13 PM,6.8,-0.4,72,30.14,1.8,SW,11.5,19.6,N/A,,Haze,230,2013-03-16 18:13:00
1:54 PM,8.6,-0.4,67,30.14,2.5,WSW,15.0,-,N/A,,Haze,250,2013-03-16 18:54:00
2:14 PM,8.6,-0.4,67,30.14,4.0,WSW,16.1,19.6,N/A,,Haze,240,2013-03-16 19:14:00
2:34 PM,8.6,-0.4,67,30.14,2.5,WSW,12.7,20.7,N/A,,Haze,240,2013-03-16 19:34:00
2:54 PM,8.6,1.4,73,30.14,3.0,West,13.8,19.6,N/A,,Haze,260,2013-03-16 19:54:00
3:14 PM,10.4,1.4,67,30.15,7.0,West,10.4,-,N/A,,Scattered Clouds,270,2013-03-16 20:14:00
3:34 PM,10.4,-2.2,57,30.15,10.0,WNW,16.1,21.9,N/A,,Scattered Clouds,300,2013-03-16 20:34:00
3:54 PM,10.4,-2.2,57,30.14,10.0,WNW,12.7,23.0,N/A,,Scattered Clouds,300,2013-03-16 20:54:00
4:14 PM,10.4,-0.4,62,30.15,10.0,NW,12.7,20.7,N/A,,Scattered Clouds,320,2013-03-16 21:14:00
4:34 PM,8.6,-0.4,67,30.16,10.0,NW,15.0,-,N/A,,Scattered Clouds,320,2013-03-16 21:34:00
4:54 PM,8.6,-2.2,62,30.16,10.0,NW,16.1,23.0,N/A,,Mostly Cloudy,310,2013-03-16 21:54:00
5:14 PM,8.6,-2.2,62,30.17,10.0,NW,13.8,19.6,N/A,,Clear,310,2013-03-16 22:14:00
5:34 PM,8.6,-5.8,52,30.17,10.0,NW,12.7,21.9,N/A,,Clear,320,2013-03-16 22:34:00
5:54 PM,8.6,-4.0,57,30.17,10.0,NW,12.7,25.3,N/A,,Clear,310,2013-03-16 22:54:00
6:14 PM,8.6,-2.2,62,30.17,10.0,NW,10.4,-,N/A,,Scattered Clouds,320,2013-03-16 23:14:00
6:34 PM,8.6,-4.0,57,30.17,5.0,NW,15.0,20.7,N/A,,Haze,310,2013-03-16 23:34:00
6:54 PM,6.8,-5.8,56,30.18,10.0,NW,12.7,-,N/A,,Scattered Clouds,310,2013-03-16 23:54:00
7:14 PM,6.8,-5.8,56,30.18,10.0,WNW,10.4,-,N/A,,Clear,300,2013-03-17 00:14:00
7:34 PM,5.0,-7.6,56,30.19,10.0,WNW,5.8,-,N/A,,Clear,300,2013-03-17 00:34:00
7:54 PM,3.2,-9.4,56,30.20,10.0,NNW,4.6,-,N/A,,Clear,330,2013-03-17 00:54:00
8:14 PM,1.4,-9.4,61,30.21,10.0,NNW,5.8,-,N/A,,Clear,330,2013-03-17 01:14:00
8:33 PM,1.4,-11.2,56,30.21,10.0,NNW,5.8,-,N/A,,Clear,330,2013-03-17 01:33:00
8:54 PM,1.4,-11.2,56,30.22,10.0,NNW,5.8,-,N/A,,Clear,330,2013-03-17 01:54:00
9:14 PM,-0.4,-13.0,55,30.23,10.0,NNW,5.8,-,N/A,,Clear,330,2013-03-17 02:14:00
9:34 PM,-0.4,-13.0,55,30.24,10.0,NW,3.5,-,N/A,,Clear,310,2013-03-17 02:34:00
9:53 PM,-0.4,-13.0,55,30.24,10.0,Calm,Calm,-,N/A,,Clear,0,2013-03-17 02:53:00
10:14 PM,-0.4,-13.0,55,30.25,10.0,WNW,5.8,-,N/A,,Clear,300,2013-03-17 03:14:00
10:34 PM,-2.2,-14.8,55,30.25,10.0,WNW,5.8,-,N/A,,Clear,290,2013-03-17 03:34:00
10:54 PM,-2.2,-14.8,55,30.25,10.0,WNW,3.5,-,N/A,,Clear,300,2013-03-17 03:54:00
11:14 PM,-4.0,-16.6,55,30.26,10.0,West,4.6,-,N/A,,Clear,270,2013-03-17 04:14:00
11:34 PM,-5.8,-16.6,60,30.26,10.0,Calm,Calm,-,N/A,,Clear,0,2013-03-17 04:34:00
11:54 PM,-7.6,-16.6,65,30.26,10.0,WNW,4.6,-,N/A,,Clear,290,2013-03-17 04:54:00